createdAt,value
2023-03-21T00:01:07.820Z,32.94
2023-03-21T00:03:37.167Z,32.89
2023-03-21T00:06:13.114Z,33.25
2023-03-21T00:08:43.751Z,33.34
2023-03-21T00:11:13.756Z,33.20
2023-03-21T00:13:44.741Z,33.05
2023-03-21T00:16:20.335Z,32.93
2023-03-21T00:18:56.457Z,32.90
2023-03-21T00:24:19.138Z,32.54
2023-03-21T00:26:49.200Z,32.59
2023-03-21T00:29:18.878Z,32.59
2023-03-21T00:31:49.399Z,32.54
2023-03-21T00:34:26.811Z,32.48
2023-03-21T00:37:09.432Z,32.37
2023-03-21T00:39:40.926Z,32.28
2023-03-21T00:42:13.419Z,32.16
2023-03-21T00:44:44.378Z,32.09
2023-03-21T00:47:15.084Z,31.94
2023-03-21T00:49:43.896Z,31.85
2023-03-21T00:52:24.540Z,31.67
2023-03-21T00:55:02.035Z,31.64
2023-03-21T00:57:38.555Z,31.55
2023-03-21T01:00:13.031Z,31.48
2023-03-21T01:03:04.404Z,31.39
2023-03-21T01:06:06.312Z,31.42
2023-03-21T01:08:55.274Z,31.15
2023-03-21T01:11:27.761Z,31.04
2023-03-21T01:14:14.714Z,30.96
2023-03-21T01:16:51.487Z,30.98
2023-03-21T01:19:30.875Z,30.65
2023-03-21T01:22:03.492Z,30.53
2023-03-21T01:24:35.574Z,30.39
2023-03-21T01:27:07.961Z,30.36
2023-03-21T01:29:37.036Z,30.22
2023-03-21T01:32:05.544Z,29.93
2023-03-21T01:34:35.306Z,29.77
2023-03-21T01:37:04.764Z,29.69
2023-03-21T01:39:45.019Z,29.83
2023-03-21T01:42:16.902Z,29.83
2023-03-21T01:45:07.282Z,29.85
2023-03-21T01:47:41.875Z,29.93
2023-03-21T01:50:26.110Z,29.69
2023-03-21T01:53:23.248Z,29.69
2023-03-21T01:55:52.885Z,29.51
2023-03-21T01:58:35.674Z,29.87
2023-03-21T02:01:12.094Z,30.32
2023-03-21T02:03:53.455Z,29.25
2023-03-21T02:06:49.972Z,29.31
2023-03-21T02:09:39.808Z,29.23
2023-03-21T02:12:16.795Z,29.02
2023-03-21T02:14:51.261Z,28.92
2023-03-21T02:18:03.399Z,29.09
2023-03-21T02:21:04.440Z,29.03
2023-03-21T02:23:49.648Z,29.14
2023-03-21T02:26:24.819Z,28.63
2023-03-21T02:29:11.301Z,28.71
2023-03-21T02:31:57.122Z,28.52
2023-03-21T02:35:00.801Z,29.01
2023-03-21T02:37:40.301Z,28.52
2023-03-21T02:40:25.838Z,29.53
2023-03-21T02:43:20.859Z,29.38
2023-03-21T02:46:03.205Z,29.81
2023-03-21T02:49:01.988Z,28.53
2023-03-21T02:51:35.514Z,28.28
2023-03-21T02:54:45.246Z,28.58
2023-03-21T02:57:05.167Z,28.09
2023-03-21T02:59:44.401Z,28.40
2023-03-21T03:02:24.865Z,28.83
2023-03-21T03:04:54.766Z,28.15
2023-03-21T03:07:34.493Z,27.93
2023-03-21T03:10:25.237Z,27.87
2023-03-21T03:12:56.965Z,27.76
2023-03-21T03:15:52.441Z,27.92
2023-03-21T03:18:34.434Z,28.48
2023-03-21T03:21:19.510Z,28.34
2023-03-21T03:23:56.953Z,28.35
2023-03-21T03:26:37.260Z,28.54
2023-03-21T03:29:11.995Z,28.47
2023-03-21T03:31:45.944Z,28.34
2023-03-21T03:34:24.875Z,28.36
2023-03-21T03:37:00.193Z,27.74
2023-03-21T03:39:39.935Z,27.28
2023-03-21T03:42:27.977Z,27.16
2023-03-21T03:45:13.526Z,27.06
2023-03-21T03:47:57.115Z,26.92
2023-03-21T03:50:56.813Z,26.92
2023-03-21T03:53:35.546Z,27.14
2023-03-21T03:56:10.725Z,26.86
2023-03-21T03:58:45.940Z,26.69
2023-03-21T04:01:20.470Z,26.80
2023-03-21T04:03:58.602Z,26.62
2023-03-21T04:06:33.165Z,26.62
2023-03-21T04:09:07.881Z,26.52
2023-03-21T04:11:43.262Z,26.59
2023-03-21T04:14:11.810Z,26.83
2023-03-21T04:16:41.580Z,27.30
2023-03-21T04:19:10.792Z,27.41
2023-03-21T04:21:40.836Z,27.33
2023-03-21T04:24:11.066Z,27.02
2023-03-21T04:26:41.839Z,27.24
2023-03-21T04:29:36.893Z,27.48
2023-03-21T04:32:40.867Z,26.90
2023-03-21T04:35:13.647Z,26.61
2023-03-21T04:37:43.743Z,26.34
2023-03-21T04:40:18.723Z,26.27
2023-03-21T04:42:48.909Z,26.21
2023-03-21T04:45:18.827Z,26.90
2023-03-21T04:47:48.084Z,26.29
2023-03-21T04:50:17.984Z,26.13
2023-03-21T04:52:47.437Z,26.69
2023-03-21T04:55:16.701Z,26.08
2023-03-21T04:57:48.901Z,26.89
2023-03-21T05:00:18.120Z,26.43
2023-03-21T05:02:49.286Z,26.51
2023-03-21T05:05:19.061Z,26.18
2023-03-21T05:07:48.026Z,25.88
2023-03-21T05:10:17.009Z,25.85
2023-03-21T05:12:46.085Z,25.92
2023-03-21T05:15:15.643Z,25.90
2023-03-21T05:17:44.677Z,25.93
2023-03-21T05:20:16.686Z,25.83
2023-03-21T05:22:47.232Z,25.75
2023-03-21T05:25:19.577Z,25.70
2023-03-21T05:28:05.162Z,25.82
2023-03-21T05:30:34.140Z,25.67
2023-03-21T05:33:05.875Z,25.68
2023-03-21T05:35:35.647Z,25.70
2023-03-21T05:38:07.674Z,25.90
2023-03-21T05:40:52.454Z,25.84
2023-03-21T05:43:21.379Z,25.69
2023-03-21T05:45:49.902Z,25.63
2023-03-21T05:48:20.521Z,25.54
2023-03-21T05:51:09.703Z,25.57
2023-03-21T05:53:39.729Z,25.66
2023-03-21T05:56:09.771Z,25.46
2023-03-21T05:58:53.188Z,25.44
2023-03-21T06:01:23.957Z,25.48
2023-03-21T06:04:02.142Z,25.88
2023-03-21T06:06:32.924Z,25.97
2023-03-21T06:09:03.532Z,25.99
2023-03-21T06:11:37.027Z,25.95
2023-03-21T06:14:33.125Z,26.01
2023-03-21T06:17:19.352Z,25.64
2023-03-21T06:19:55.496Z,25.27
2023-03-21T06:22:35.127Z,25.12
2023-03-21T06:25:08.570Z,25.03
2023-03-21T06:27:39.731Z,24.96
2023-03-21T06:30:10.719Z,24.97
2023-03-21T06:32:47.715Z,24.86
2023-03-21T06:35:19.504Z,24.98
2023-03-21T06:37:49.843Z,24.94
2023-03-21T06:40:19.795Z,24.93
2023-03-21T06:42:48.903Z,24.91
2023-03-21T06:45:18.002Z,24.91
2023-03-21T06:47:47.454Z,24.88
2023-03-21T06:50:45.190Z,24.96
2023-03-21T06:53:13.560Z,24.82
2023-03-21T06:56:02.425Z,24.87
2023-03-21T06:58:34.179Z,24.91
2023-03-21T07:01:07.292Z,24.84
2023-03-21T07:03:44.336Z,24.77
2023-03-21T07:06:14.188Z,24.63
2023-03-21T07:08:43.532Z,24.65
2023-03-21T07:11:12.622Z,24.69
2023-03-21T07:13:42.083Z,24.64
2023-03-21T07:16:11.601Z,24.66
2023-03-21T07:18:41.197Z,24.60
2023-03-21T07:21:10.342Z,24.53
2023-03-21T07:23:41.905Z,24.67
2023-03-21T07:26:11.394Z,24.57
2023-03-21T07:28:41.914Z,24.52
2023-03-21T07:31:16.479Z,24.49
2023-03-21T07:33:45.284Z,24.46
2023-03-21T07:36:16.699Z,24.38
2023-03-21T07:38:50.329Z,24.34
2023-03-21T07:41:24.102Z,24.98
2023-03-21T07:43:52.942Z,24.45
2023-03-21T07:46:21.960Z,24.36
2023-03-21T07:48:51.564Z,24.25
2023-03-21T07:51:20.236Z,24.20
2023-03-21T07:53:49.573Z,24.12
2023-03-21T07:56:18.727Z,24.09
2023-03-21T07:58:48.481Z,24.06
2023-03-21T08:01:17.803Z,24.46
2023-03-21T08:03:48.935Z,24.06
2023-03-21T08:06:17.718Z,24.14
2023-03-21T08:08:47.537Z,24.09
2023-03-21T08:11:16.686Z,24.02
2023-03-21T08:13:45.315Z,23.99
2023-03-21T08:16:15.467Z,24.00
2023-03-21T08:18:44.860Z,23.97
2023-03-21T08:21:13.362Z,23.93
2023-03-21T08:23:41.833Z,23.90
2023-03-21T08:26:11.423Z,23.78
2023-03-21T08:28:41.268Z,23.81
2023-03-21T08:31:12.457Z,23.80
2023-03-21T08:33:42.168Z,23.81
2023-03-21T08:36:12.854Z,23.72
2023-03-21T08:38:41.743Z,24.20
2023-03-21T08:41:11.467Z,23.82
2023-03-21T08:43:40.678Z,24.05
2023-03-21T08:46:10.034Z,23.85
2023-03-21T08:48:39.931Z,23.71
2023-03-21T08:51:09.251Z,23.62
2023-03-21T08:53:37.548Z,23.51
2023-03-21T08:56:07.884Z,23.45
2023-03-21T08:58:37.425Z,23.38
2023-03-21T09:01:09.178Z,23.51
2023-03-21T09:03:43.166Z,23.64
2023-03-21T09:06:15.956Z,23.64
2023-03-21T09:08:48.031Z,23.61
2023-03-21T09:11:17.380Z,23.86
2023-03-21T09:13:45.732Z,23.52
2023-03-21T09:16:15.589Z,23.50
2023-03-21T09:18:51.653Z,23.45
2023-03-21T09:21:21.582Z,23.46
2023-03-21T09:23:53.552Z,24.26
2023-03-21T09:26:32.234Z,23.45
2023-03-21T09:29:01.747Z,23.51
2023-03-21T09:31:33.151Z,23.18
2023-03-21T09:34:02.831Z,23.20
2023-03-21T09:36:35.835Z,23.10
2023-03-21T09:39:04.858Z,23.14
2023-03-21T09:41:47.920Z,23.05
2023-03-21T09:44:35.762Z,23.06
2023-03-21T09:47:33.567Z,23.03
2023-03-21T09:50:20.932Z,23.10
2023-03-21T09:53:18.218Z,23.05
2023-03-21T09:55:48.314Z,23.04
2023-03-21T09:58:35.670Z,22.95
2023-03-21T10:01:23.256Z,22.96
2023-03-21T10:03:52.635Z,23.44
2023-03-21T10:06:30.719Z,23.04
2023-03-21T10:09:09.855Z,22.89
2023-03-21T10:11:47.349Z,22.84
2023-03-21T10:14:36.992Z,22.82
2023-03-21T10:17:38.246Z,22.95
2023-03-21T10:20:26.123Z,22.91
2023-03-21T10:23:00.045Z,22.97
2023-03-21T10:25:41.630Z,23.04
2023-03-21T10:28:19.977Z,23.00
2023-03-21T10:30:57.514Z,22.97
2023-03-21T10:33:43.612Z,22.96
2023-03-21T10:36:18.172Z,22.80
2023-03-21T10:39:13.035Z,22.67
2023-03-21T10:41:42.135Z,22.67
2023-03-21T10:44:17.683Z,22.54
2023-03-21T10:47:06.442Z,22.55
2023-03-21T10:50:05.748Z,22.52
2023-03-21T10:52:33.874Z,22.57
2023-03-21T10:55:18.142Z,23.20
2023-03-21T10:57:49.177Z,22.79
2023-03-21T11:00:32.686Z,22.65
2023-03-21T11:03:04.528Z,22.54
2023-03-21T11:05:41.564Z,22.44
2023-03-21T11:08:17.044Z,22.37
2023-03-21T11:11:09.847Z,22.42
2023-03-21T11:13:44.154Z,22.45
2023-03-21T11:16:39.753Z,23.53
2023-03-21T11:19:35.604Z,22.54
2023-03-21T11:22:09.337Z,22.45
2023-03-21T11:24:39.337Z,22.49
2023-03-21T11:27:09.653Z,22.51
2023-03-21T11:29:42.059Z,22.79
2023-03-21T11:32:14.011Z,22.74
2023-03-21T11:34:53.834Z,22.51
2023-03-21T11:37:29.579Z,23.39
2023-03-21T11:40:09.954Z,22.99
2023-03-21T11:42:48.940Z,22.67
2023-03-21T11:45:21.651Z,22.40
2023-03-21T11:47:55.642Z,22.56
2023-03-21T11:50:34.285Z,22.76
2023-03-21T11:53:22.039Z,22.55
2023-03-21T11:56:24.039Z,22.68
2023-03-21T11:59:18.323Z,22.85
2023-03-21T12:01:59.878Z,23.18
2023-03-21T12:04:32.897Z,23.23
2023-03-21T12:07:30.363Z,24.29
2023-03-21T12:10:44.350Z,23.73
2023-03-21T12:13:42.547Z,23.81
2023-03-21T12:16:37.998Z,24.04
2023-03-21T12:19:33.660Z,24.34
2023-03-21T12:22:09.907Z,24.57
2023-03-21T12:25:10.133Z,24.84
2023-03-21T12:28:05.019Z,25.11
2023-03-21T12:31:10.201Z,25.42
2023-03-21T12:33:50.288Z,25.74
2023-03-21T12:36:44.413Z,26.26
2023-03-21T12:39:25.598Z,26.70
2023-03-21T12:42:14.470Z,27.00
2023-03-21T12:44:56.427Z,27.46
2023-03-21T12:47:36.320Z,27.63
2023-03-21T12:50:29.698Z,28.06
2023-03-21T12:53:11.989Z,30.02
2023-03-21T12:55:44.157Z,30.22
2023-03-21T12:58:20.323Z,30.36
2023-03-21T13:00:57.651Z,30.56
2023-03-21T13:03:41.150Z,30.84
2023-03-21T13:06:16.279Z,31.00
2023-03-21T13:09:09.516Z,31.30
2023-03-21T13:11:46.072Z,31.55
2023-03-21T13:14:33.443Z,31.72
2023-03-21T13:17:24.175Z,31.86
2023-03-21T13:20:21.444Z,32.02
2023-03-21T13:22:52.265Z,32.20
2023-03-21T13:25:24.427Z,32.37
2023-03-21T13:28:34.041Z,32.34
2023-03-21T13:31:50.697Z,32.59
2023-03-21T13:34:24.553Z,32.76
2023-03-21T13:37:05.842Z,32.70
2023-03-21T13:39:45.911Z,32.86
2023-03-21T13:42:28.619Z,33.58
2023-03-21T13:45:09.443Z,33.82
2023-03-21T13:47:49.020Z,33.32
2023-03-21T13:50:20.025Z,32.58
2023-03-21T13:53:17.930Z,32.28
2023-03-21T13:56:26.326Z,32.37
2023-03-21T13:59:47.833Z,33.07
2023-03-21T14:02:39.355Z,33.34
2023-03-21T14:05:22.699Z,33.18
2023-03-21T14:08:19.261Z,32.99
2023-03-21T14:11:04.084Z,33.24
2023-03-21T14:13:48.417Z,33.37
2023-03-21T14:16:28.942Z,34.01
2023-03-21T14:19:08.579Z,33.96
2023-03-21T14:21:41.243Z,34.03
2023-03-21T14:24:16.944Z,34.52
2023-03-21T14:26:57.432Z,34.41
2023-03-21T14:29:38.653Z,34.63
2023-03-21T14:32:24.626Z,35.57
2023-03-21T14:35:06.144Z,35.39
2023-03-21T14:37:52.265Z,35.55
2023-03-21T14:40:41.236Z,35.71
2023-03-21T14:43:16.945Z,35.53
2023-03-21T14:46:17.499Z,35.61
2023-03-21T14:48:48.548Z,35.64
2023-03-21T14:51:18.739Z,35.63
2023-03-21T14:53:53.299Z,36.29
2023-03-21T14:56:33.671Z,36.22
2023-03-21T14:59:18.444Z,36.03
2023-03-21T15:01:56.825Z,36.93
2023-03-21T15:04:42.705Z,36.54
2023-03-21T15:07:40.946Z,36.34
2023-03-21T15:10:22.292Z,36.31
2023-03-21T15:13:32.169Z,36.53
2023-03-21T15:16:18.334Z,36.46
2023-03-21T15:18:57.188Z,36.45
2023-03-21T15:21:54.343Z,36.79
2023-03-21T15:24:50.162Z,36.60
2023-03-21T15:27:34.272Z,36.42
2023-03-21T15:30:38.436Z,36.55
2023-03-21T15:33:28.872Z,36.94
2023-03-21T15:36:16.543Z,36.87
2023-03-21T15:39:26.323Z,37.56
2023-03-21T15:43:17.814Z,37.94
2023-03-21T15:46:05.052Z,38.09
2023-03-21T15:48:50.628Z,37.56
2023-03-21T15:51:36.647Z,37.48
2023-03-21T15:55:12.943Z,38.27
2023-03-21T15:58:14.320Z,38.02
2023-03-21T16:01:13.212Z,38.01
2023-03-21T16:03:51.281Z,37.69
2023-03-21T16:06:26.381Z,37.59
2023-03-21T16:09:12.354Z,37.68
2023-03-21T16:11:52.265Z,37.62
2023-03-21T16:14:25.061Z,37.67
2023-03-21T16:17:01.714Z,37.81
2023-03-21T16:19:38.000Z,37.91
2023-03-21T16:22:15.727Z,37.90
2023-03-21T16:24:49.148Z,38.71
2023-03-21T16:27:26.406Z,38.06
2023-03-21T16:30:01.034Z,37.99
2023-03-21T16:32:46.082Z,38.07
2023-03-21T16:35:18.434Z,37.98
2023-03-21T16:37:50.859Z,38.12
2023-03-21T16:40:37.392Z,38.33
2023-03-21T16:43:09.602Z,38.48
2023-03-21T16:45:46.490Z,38.47
2023-03-21T16:48:21.794Z,38.62
2023-03-21T16:50:57.535Z,38.56
2023-03-21T16:53:35.945Z,38.66
2023-03-21T16:56:22.582Z,38.53
2023-03-21T16:59:01.617Z,38.62
2023-03-21T17:01:41.482Z,38.62
2023-03-21T17:04:20.310Z,38.69
2023-03-21T17:07:02.349Z,38.75
2023-03-21T17:09:39.978Z,38.83
2023-03-21T17:12:18.266Z,38.94
2023-03-21T17:14:50.171Z,38.88
2023-03-21T17:17:21.985Z,38.84
2023-03-21T17:19:56.744Z,38.96
2023-03-21T17:22:34.115Z,39.02
2023-03-21T17:25:08.455Z,39.23
2023-03-21T17:27:49.853Z,39.28
2023-03-21T17:30:44.031Z,39.33
2023-03-21T17:33:16.902Z,39.31
2023-03-21T17:35:48.793Z,39.28
2023-03-21T17:38:18.446Z,39.13
2023-03-21T17:40:51.665Z,39.23
2023-03-21T17:43:26.220Z,39.63
2023-03-21T17:46:09.313Z,40.06
2023-03-21T17:48:41.496Z,40.21
2023-03-21T17:51:20.830Z,40.33
2023-03-21T17:53:53.865Z,40.40
2023-03-21T17:56:36.838Z,40.54
2023-03-21T17:59:13.094Z,40.59
2023-03-21T18:01:46.931Z,40.62
2023-03-21T18:04:18.420Z,40.73
2023-03-21T18:06:53.506Z,40.91
2023-03-21T18:09:27.005Z,40.85
2023-03-21T18:12:01.976Z,40.92
2023-03-21T18:14:40.440Z,41.03
2023-03-21T18:17:20.388Z,41.14
2023-03-21T18:19:57.358Z,40.89
2023-03-21T18:22:34.765Z,40.99
2023-03-21T18:25:10.725Z,40.76
2023-03-21T18:28:09.183Z,40.76
2023-03-21T18:33:36.803Z,41.07
2023-03-21T18:36:14.858Z,41.27
2023-03-21T18:38:48.771Z,41.26
2023-03-21T18:41:21.659Z,41.14
2023-03-21T18:44:05.126Z,41.20
2023-03-21T18:46:47.987Z,41.47
2023-03-21T18:50:01.935Z,42.30
2023-03-21T18:52:09.091Z,42.00
2023-03-21T18:54:38.279Z,41.90
2023-03-21T18:59:59.971Z,40.60
2023-03-21T19:02:30.747Z,40.48
2023-03-21T19:05:02.019Z,40.41
2023-03-21T19:07:32.338Z,40.35
2023-03-21T19:10:17.071Z,40.42
2023-03-21T19:12:46.392Z,40.51
2023-03-21T19:15:18.292Z,40.83
2023-03-21T19:20:38.352Z,41.76
2023-03-21T19:23:10.189Z,40.82
2023-03-21T19:25:40.524Z,40.65
2023-03-21T19:28:10.306Z,40.62
2023-03-21T19:30:48.987Z,40.60
2023-03-21T19:33:21.045Z,40.56
2023-03-21T19:36:08.932Z,40.47
2023-03-21T19:38:41.667Z,40.47
2023-03-21T19:41:10.781Z,40.48
2023-03-21T19:43:52.853Z,40.67
2023-03-21T19:46:25.699Z,40.95
2023-03-21T19:48:57.312Z,40.87
2023-03-21T19:51:30.418Z,41.04
2023-03-21T19:54:05.359Z,41.24
2023-03-21T19:56:34.834Z,41.63
2023-03-21T19:59:04.106Z,41.19
2023-03-21T20:01:35.822Z,41.12
2023-03-21T20:04:04.899Z,41.23
2023-03-21T20:06:34.341Z,40.83
2023-03-21T20:11:56.946Z,40.93
2023-03-21T20:14:26.722Z,40.74
2023-03-21T20:16:57.681Z,40.72
2023-03-21T20:19:29.514Z,40.48
2023-03-21T20:22:02.190Z,40.51
2023-03-21T20:24:34.992Z,40.52
2023-03-21T20:27:06.455Z,40.57
2023-03-21T20:30:10.693Z,40.52
2023-03-21T20:32:29.907Z,40.61
2023-03-21T20:35:13.693Z,40.79
2023-03-21T20:37:50.348Z,41.46
2023-03-21T20:40:22.199Z,41.63
2023-03-21T20:42:51.688Z,41.60
2023-03-21T20:45:20.218Z,41.65
2023-03-21T20:47:50.138Z,41.61
2023-03-21T20:50:21.996Z,40.88
2023-03-21T20:53:05.912Z,40.43
2023-03-21T20:55:38.232Z,40.69
2023-03-21T20:58:30.040Z,40.97
2023-03-21T21:01:05.210Z,40.65
2023-03-21T21:03:42.055Z,40.60
2023-03-21T21:06:16.699Z,40.40
2023-03-21T21:08:47.864Z,40.26
2023-03-21T21:12:04.644Z,40.20
2023-03-21T21:14:08.330Z,40.77
2023-03-21T21:16:37.677Z,41.20
2023-03-21T21:19:06.354Z,41.33
2023-03-21T21:21:36.240Z,40.28
2023-03-21T21:24:07.604Z,40.13
2023-03-21T21:26:37.085Z,40.06
2023-03-21T21:29:07.736Z,40.00
2023-03-21T21:31:36.099Z,39.97
2023-03-21T21:34:06.125Z,39.90
2023-03-21T21:36:36.173Z,39.84
2023-03-21T21:39:06.929Z,39.79
2023-03-21T21:41:37.433Z,39.78
2023-03-21T21:44:07.838Z,39.79
2023-03-21T21:46:37.144Z,39.72
2023-03-21T21:49:06.148Z,39.64
2023-03-21T21:51:35.958Z,39.84
2023-03-21T21:54:08.291Z,39.75
2023-03-21T21:56:38.225Z,39.52
2023-03-21T21:59:08.192Z,39.49
2023-03-21T22:01:40.105Z,39.38
2023-03-21T22:04:11.996Z,39.33
2023-03-21T22:06:42.888Z,39.34
2023-03-21T22:09:12.275Z,39.51
2023-03-21T22:11:41.733Z,39.34
2023-03-21T22:14:10.113Z,39.33
2023-03-21T22:16:39.000Z,39.32
2023-03-21T22:19:09.498Z,39.85
2023-03-21T22:21:38.190Z,39.92
2023-03-21T22:24:08.254Z,39.69
2023-03-21T22:26:37.002Z,39.65
2023-03-21T22:29:08.961Z,39.51
2023-03-21T22:31:40.164Z,39.47
2023-03-21T22:34:09.569Z,39.45
2023-03-21T22:36:38.051Z,39.24
2023-03-21T22:39:09.072Z,39.46
2023-03-21T22:41:38.523Z,39.38
2023-03-21T22:44:08.638Z,39.31
2023-03-21T22:46:37.781Z,39.25
2023-03-21T22:49:06.904Z,38.99
2023-03-21T22:51:36.701Z,38.97
2023-03-21T22:54:05.953Z,39.26
2023-03-21T22:56:35.646Z,39.12
2023-03-21T22:59:04.459Z,38.97
2023-03-21T23:01:33.467Z,38.80
2023-03-21T23:04:02.540Z,38.63
2023-03-21T23:06:32.660Z,38.56
2023-03-21T23:09:02.762Z,38.56
2023-03-21T23:11:32.512Z,38.43
2023-03-21T23:14:07.933Z,38.36
2023-03-21T23:16:38.677Z,38.37
2023-03-21T23:19:11.003Z,38.31
2023-03-21T23:21:42.033Z,38.40
2023-03-21T23:24:11.781Z,38.28
2023-03-21T23:26:41.616Z,38.09
2023-03-21T23:29:11.744Z,37.97
2023-03-21T23:31:40.634Z,37.90
2023-03-21T23:34:09.760Z,37.81
2023-03-21T23:36:38.109Z,37.71
2023-03-21T23:39:08.028Z,37.58
2023-03-21T23:41:37.211Z,37.50
2023-03-21T23:44:06.872Z,37.52
2023-03-21T23:46:36.332Z,37.75
2023-03-21T23:49:05.466Z,37.83
2023-03-21T23:51:34.191Z,37.71
2023-03-21T23:54:04.044Z,37.44
2023-03-21T23:56:33.477Z,37.17
2023-03-21T23:59:02.452Z,36.99
